Time;durP1;ratioP1;P1;durP2;ratioP2;P2;SDS_P1;SDS_P2;PMS_P1;PMS_P2;Temp;Humidity;BMP_temperature;BMP_pressure;BME280_temperature;BME280_humidity;BME280_pressure;Samples;Min_cycle;Max_cycle;Signal;HPM_P1;HPM_P2
2023/09/13 00:01:39;;;;;;;28.55;25.65;;;;;;;20.00;100.00;101163.06;5052136;28;20028;-63
2023/09/13 00:04:05;;;;;;;28.05;25.38;;;;;;;19.91;100.00;101160.28;5066373;28;20032;-63
2023/09/13 00:06:30;;;;;;;27.77;24.92;;;;;;;20.01;100.00;101164.78;5051483;28;20507;-63
2023/09/13 00:08:55;;;;;;;28.65;25.55;;;;;;;20.05;100.00;101152.69;5050010;28;20043;-63
2023/09/13 00:11:23;;;;;;;30.05;27.13;;;;;;;19.91;100.00;101154.91;5069404;28;20024;-64
2023/09/13 00:13:48;;;;;;;29.20;26.20;;;;;;;20.02;100.00;101155.69;5045098;28;20017;-63
2023/09/13 00:16:14;;;;;;;28.38;25.65;;;;;;;19.90;100.00;101144.22;5056765;28;20481;-64
2023/09/13 00:18:40;;;;;;;28.98;25.83;;;;;;;19.94;100.00;101146.50;5057489;28;20021;-63
2023/09/13 00:21:08;;;;;;;30.38;27.13;;;;;;;19.91;100.00;101157.59;5052581;28;20032;-63
2023/09/13 00:23:34;;;;;;;30.10;27.23;;;;;;;19.86;100.00;101153.66;5056861;28;20082;-64
2023/09/13 00:25:59;;;;;;;28.80;25.98;;;;;;;19.92;100.00;101151.19;5051500;28;20032;-64
2023/09/13 00:28:24;;;;;;;30.38;27.50;;;;;;;19.76;100.00;101156.38;5053368;28;20031;-63
2023/09/13 00:30:52;;;;;;;29.48;26.38;;;;;;;19.71;100.00;101159.53;5059796;28;20024;-64
2023/09/13 00:33:17;;;;;;;32.20;28.73;;;;;;;19.70;100.00;101155.09;5036976;28;20028;-64
2023/09/13 00:35:43;;;;;;;32.10;28.77;;;;;;;19.69;100.00;101161.50;5054336;28;20118;-63
2023/09/13 00:38:08;;;;;;;31.38;28.30;;;;;;;19.62;100.00;101148.72;5037205;28;20033;-63
2023/09/13 00:40:33;;;;;;;32.70;29.30;;;;;;;19.71;100.00;101156.84;5032681;28;20447;-63
2023/09/13 00:43:01;;;;;;;31.38;28.10;;;;;;;19.59;100.00;101154.41;5047908;28;20032;-63
2023/09/13 00:45:31;;;;;;;32.28;28.92;;;;;;;19.69;100.00;101166.06;5040287;28;20440;-64
2023/09/13 00:47:57;;;;;;;30.55;27.50;;;;;;;19.55;100.00;101158.41;5059931;28;20025;-64
2023/09/13 00:50:23;;;;;;;34.63;30.92;;;;;;;19.62;100.00;101164.91;5076930;28;20029;-64
2023/09/13 00:52:48;;;;;;;34.28;30.67;;;;;;;19.54;100.00;101159.44;5050294;28;20090;-64
2023/09/13 00:55:17;;;;;;;35.35;30.42;;;;;;;19.51;100.00;101166.81;5034981;28;20050;-64
2023/09/13 00:57:44;;;;;;;34.85;31.35;;;;;;;19.52;100.00;101162.25;5037063;28;20999;-64
2023/09/13 01:00:10;;;;;;;36.58;32.60;;;;;;;19.37;100.00;101151.09;5052815;28;20028;-63
2023/09/13 01:02:40;;;;;;;37.10;33.20;;;;;;;19.37;100.00;101152.94;5065343;28;20521;-64
2023/09/13 01:05:11;;;;;;;39.13;34.75;;;;;;;19.32;100.00;101157.91;5058937;28;20031;-63
2023/09/13 01:07:40;;;;;;;40.47;34.58;;;;;;;19.36;100.00;101152.09;5032386;28;20036;-63
2023/09/13 01:10:06;;;;;;;40.37;35.03;;;;;;;19.43;100.00;101158.59;5051899;28;20414;-64
2023/09/13 01:12:32;;;;;;;37.60;33.67;;;;;;;19.33;100.00;101159.63;5034181;28;20341;-63
2023/09/13 01:14:57;;;;;;;42.47;35.80;;;;;;;19.31;100.00;101153.53;5015661;28;20020;-64
2023/09/13 01:17:47;;;;;;;39.20;34.85;;;;;;;19.45;100.00;101151.22;5054310;28;20028;-64
2023/09/13 01:20:15;;;;;;;42.50;34.80;;;;;;;19.24;100.00;101159.50;5053559;28;20020;-64
2023/09/13 01:22:49;;;;;;;41.15;36.60;;;;;;;19.28;100.00;101150.13;5037238;28;20029;-64
2023/09/13 01:25:30;;;;;;;41.38;37.00;;;;;;;19.33;100.00;101148.84;5036090;28;20539;-64
2023/09/13 01:27:58;;;;;;;44.95;37.67;;;;;;;19.21;100.00;101153.56;5063485;28;20377;-64
2023/09/13 01:30:25;;;;;;;43.03;37.88;;;;;;;19.32;100.00;101153.38;5056801;28;20025;-64
2023/09/13 01:32:51;;;;;;;42.25;37.45;;;;;;;19.29;100.00;101161.75;5054699;28;20530;-64
2023/09/13 01:35:17;;;;;;;43.15;38.72;;;;;;;19.22;100.00;101158.78;5056530;28;20048;-64
2023/09/13 01:37:42;;;;;;;41.08;36.63;;;;;;;19.21;100.00;101158.97;5033004;28;20444;-64
2023/09/13 01:40:09;;;;;;;45.30;40.42;;;;;;;19.23;100.00;101160.47;5050264;28;20032;-64
2023/09/13 01:42:37;;;;;;;44.60;39.47;;;;;;;19.15;100.00;101157.69;5031859;28;20024;-64
2023/09/13 01:45:03;;;;;;;47.03;40.78;;;;;;;19.23;100.00;101160.47;5065571;28;20060;-64
2023/09/13 01:47:29;;;;;;;45.65;40.58;;;;;;;19.21;100.00;101161.66;5055409;28;20029;-64
2023/09/13 01:49:57;;;;;;;46.88;41.65;;;;;;;19.31;100.00;101172.41;5059276;28;20083;-64
2023/09/13 01:52:22;;;;;;;50.85;43.13;;;;;;;19.27;100.00;101170.00;5056872;28;20512;-64
2023/09/13 01:54:48;;;;;;;50.85;45.22;;;;;;;19.23;100.00;101168.56;5041314;28;20033;-64
2023/09/13 01:57:13;;;;;;;55.90;44.50;;;;;;;19.27;100.00;101171.84;5065609;28;20077;-64
2023/09/13 01:59:38;;;;;;;57.80;47.45;;;;;;;19.20;100.00;101176.09;5058954;28;20490;-63
2023/09/13 02:02:06;;;;;;;50.67;44.67;;;;;;;19.06;100.00;101182.81;5064030;28;20021;-63
2023/09/13 02:04:33;;;;;;;57.03;48.67;;;;;;;19.18;100.00;101172.72;5053632;28;20082;-64
2023/09/13 02:07:00;;;;;;;57.85;50.00;;;;;;;19.07;100.00;101179.13;5059404;28;20278;-63
2023/09/13 02:09:25;;;;;;;63.20;51.15;;;;;;;19.04;100.00;101179.41;5055744;28;20036;-63
2023/09/13 02:11:51;;;;;;;60.20;49.83;;;;;;;19.13;100.00;101183.09;5038747;28;20091;-63
2023/09/13 02:14:16;;;;;;;60.85;51.63;;;;;;;18.98;100.00;101183.53;5054114;28;20024;-63
2023/09/13 02:16:41;;;;;;;63.95;51.25;;;;;;;18.87;100.00;101164.81;5056117;28;20036;-64
2023/09/13 02:19:07;;;;;;;64.70;53.42;;;;;;;19.05;100.00;101189.19;5054157;28;20398;-64
2023/09/13 02:21:32;;;;;;;68.78;55.97;;;;;;;19.03;100.00;101186.66;5058401;28;20032;-63
2023/09/13 02:23:58;;;;;;;73.30;58.40;;;;;;;19.01;100.00;101185.94;5052245;28;21019;-63
2023/09/13 02:26:26;;;;;;;72.63;59.55;;;;;;;18.94;100.00;101190.22;5061525;28;20036;-63
2023/09/13 02:28:52;;;;;;;72.25;59.38;;;;;;;18.99;100.00;101201.41;5035875;28;20045;-63
2023/09/13 02:31:28;;;;;;;73.30;59.10;;;;;;;18.94;100.00;101194.72;5054781;28;20496;-64
2023/09/13 02:33:54;;;;;;;77.28;59.42;;;;;;;18.98;100.00;101194.31;5035156;28;20392;-63
2023/09/13 02:36:20;;;;;;;76.78;60.97;;;;;;;19.10;100.00;101195.00;5063790;28;20080;-63
2023/09/13 02:38:45;;;;;;;76.63;60.60;;;;;;;18.90;100.00;101185.22;5039351;28;20067;-63
2023/09/13 02:41:11;;;;;;;77.05;60.70;;;;;;;19.02;100.00;101192.16;5026630;28;20041;-63
2023/09/13 02:43:39;;;;;;;78.80;60.53;;;;;;;19.00;100.00;101200.41;5063862;28;20028;-63
2023/09/13 02:46:04;;;;;;;78.35;60.47;;;;;;;18.90;100.00;101198.72;5042086;28;20099;-63
2023/09/13 02:48:30;;;;;;;76.90;60.95;;;;;;;19.04;100.00;101195.59;5037311;28;20037;-63
2023/09/13 02:50:55;;;;;;;74.78;59.15;;;;;;;18.94;100.00;101192.03;5042106;28;20377;-63
2023/09/13 02:53:22;;;;;;;70.53;57.13;;;;;;;18.97;100.00;101194.44;5039427;28;20489;-64
2023/09/13 02:55:47;;;;;;;70.13;56.20;;;;;;;18.90;100.00;101194.16;5038963;28;20028;-64
2023/09/13 02:58:13;;;;;;;70.00;56.17;;;;;;;18.92;100.00;101194.03;5053351;28;20033;-64
2023/09/13 03:00:42;;;;;;;73.20;58.00;;;;;;;18.89;100.00;101191.63;5038318;28;20031;-64
2023/09/13 03:03:07;;;;;;;;;;;;;;;19.08;100.00;101202.38;5064924;28;20024;-64
2023/09/13 03:05:33;;;;;;;68.22;55.83;;;;;;;18.92;100.00;101189.50;5060006;28;20271;-64
2023/09/13 03:08:00;;;;;;;69.50;57.42;;;;;;;18.93;100.00;101207.34;5064663;28;20047;-64
2023/09/13 03:10:29;;;;;;;69.20;54.97;;;;;;;18.78;100.00;101201.53;5062809;28;20051;-64
2023/09/13 03:12:55;;;;;;;71.30;55.63;;;;;;;18.78;100.00;101196.16;5041855;28;20110;-64
2023/09/13 03:15:20;;;;;;;68.88;56.80;;;;;;;18.74;100.00;101199.28;5051754;28;20056;-64
2023/09/13 03:17:45;;;;;;;74.15;56.58;;;;;;;18.79;100.00;101202.38;5037803;28;20039;-63
2023/09/13 03:20:11;;;;;;;70.43;55.47;;;;;;;18.76;100.00;101208.06;5033679;28;20041;-64
2023/09/13 03:22:37;;;;;;;74.38;57.70;;;;;;;18.74;100.00;101197.44;5050869;28;20033;-64
2023/09/13 03:25:05;;;;;;;73.03;57.40;;;;;;;18.76;100.00;101213.44;5060518;28;20040;-63
2023/09/13 03:27:31;;;;;;;73.63;58.78;;;;;;;18.69;100.00;101210.44;5034273;28;20507;-63
2023/09/13 03:29:59;;;;;;;75.72;58.80;;;;;;;18.74;100.00;101210.06;5054224;28;20025;-64
2023/09/13 03:32:24;;;;;;;73.07;58.13;;;;;;;18.73;100.00;101211.88;5048895;28;20434;-64
2023/09/13 03:34:51;;;;;;;71.18;56.92;;;;;;;18.75;100.00;101211.75;5065013;28;20366;-62
2023/09/13 03:37:22;;;;;;;72.70;57.25;;;;;;;18.71;100.00;101221.09;5054690;28;20070;-64
2023/09/13 03:39:47;;;;;;;76.45;59.17;;;;;;;18.71;100.00;101221.94;5052632;28;20033;-64
2023/09/13 03:42:12;;;;;;;77.28;57.78;;;;;;;18.71;100.00;101218.41;5052748;28;20104;-63
2023/09/13 03:44:38;;;;;;;73.95;58.38;;;;;;;18.72;100.00;101222.78;5057982;28;20107;-64
2023/09/13 03:47:03;;;;;;;73.43;58.28;;;;;;;18.72;100.00;101220.09;5070421;28;20032;-63
2023/09/13 03:49:29;;;;;;;77.40;59.33;;;;;;;18.67;100.00;101220.50;5055022;28;20056;-63
2023/09/13 03:51:54;;;;;;;78.35;59.47;;;;;;;18.62;100.00;101209.31;5066707;28;20360;-63
2023/09/13 03:54:20;;;;;;;73.68;58.83;;;;;;;18.65;100.00;101224.31;5044032;28;20024;-63
2023/09/13 03:56:45;;;;;;;83.90;60.95;;;;;;;18.67;100.00;101223.19;5069237;28;20024;-63
2023/09/13 03:59:13;;;;;;;74.65;57.78;;;;;;;18.69;100.00;101223.91;5043787;28;20041;-64
2023/09/13 04:01:38;;;;;;;81.07;59.60;;;;;;;18.69;100.00;101209.59;5049468;28;20051;-64
2023/09/13 04:04:04;;;;;;;75.25;59.42;;;;;;;18.72;100.00;101225.47;5051600;28;20064;-63
2023/09/13 04:06:31;;;;;;;74.10;58.08;;;;;;;18.61;100.00;101223.75;5068132;28;20066;-63
2023/09/13 04:09:00;;;;;;;74.57;58.65;;;;;;;18.61;100.00;101212.97;5065845;28;20104;-63
2023/09/13 04:11:28;;;;;;;74.97;58.83;;;;;;;18.61;100.00;101199.50;5058179;28;20024;-63
2023/09/13 04:13:54;;;;;;;71.35;56.13;;;;;;;18.59;100.00;101213.13;5050770;28;20032;-63
2023/09/13 04:16:19;;;;;;;75.68;59.65;;;;;;;18.52;100.00;101214.66;5038477;28;20036;-64
2023/09/13 04:18:48;;;;;;;76.55;58.67;;;;;;;18.58;100.00;101221.34;5056561;28;20099;-64
2023/09/13 04:21:13;;;;;;;80.37;57.43;;;;;;;18.59;100.00;101215.84;5049504;28;20024;-64
2023/09/13 04:23:39;;;;;;;72.57;55.55;;;;;;;18.60;100.00;101224.75;5050829;28;20031;-64
2023/09/13 04:26:04;;;;;;;70.68;56.15;;;;;;;18.59;100.00;101223.06;5036135;28;20029;-64
2023/09/13 04:28:32;;;;;;;72.35;55.50;;;;;;;18.68;100.00;101224.03;5070570;28;20360;-63
2023/09/13 04:31:00;;;;;;;73.35;56.03;;;;;;;18.61;100.00;101227.31;5053605;28;20376;-63
2023/09/13 04:33:45;;;;;;;74.43;55.17;;;;;;;18.60;100.00;101231.00;5033167;28;20032;-64
2023/09/13 04:36:11;;;;;;;71.40;55.15;;;;;;;18.65;100.00;101229.72;5061344;28;20064;-63
2023/09/13 04:38:36;;;;;;;71.78;54.15;;;;;;;18.70;100.00;101222.91;5059744;28;20025;-64
2023/09/13 04:41:03;;;;;;;68.90;54.08;;;;;;;18.55;100.00;101232.41;5056494;28;20028;-64
2023/09/13 04:43:28;;;;;;;73.43;56.35;;;;;;;18.53;100.00;101231.69;5050662;28;20361;-64
2023/09/13 04:45:54;;;;;;;72.28;54.97;;;;;;;18.58;100.00;101229.44;5051895;28;20036;-64
2023/09/13 04:48:19;;;;;;;74.72;54.85;;;;;;;18.58;100.00;101224.88;5050920;28;20350;-64
2023/09/13 04:50:45;;;;;;;66.68;52.10;;;;;;;18.61;100.00;101230.00;5038524;28;20033;-64
2023/09/13 04:53:10;;;;;;;72.43;52.85;;;;;;;18.55;100.00;101229.72;5048734;28;20556;-64
2023/09/13 04:55:35;;;;;;;67.63;50.55;;;;;;;18.52;100.00;101230.00;5053572;28;20131;-63
2023/09/13 04:58:01;;;;;;;67.55;50.97;;;;;;;18.53;100.00;101228.97;5065270;28;20058;-63
2023/09/13 05:00:28;;;;;;;64.28;49.85;;;;;;;18.47;100.00;101227.72;5053116;28;20410;-63
2023/09/13 05:02:53;;;;;;;65.28;50.40;;;;;;;18.50;100.00;101240.03;5061160;28;20114;-64
2023/09/13 05:05:18;;;;;;;72.63;52.30;;;;;;;18.49;100.00;101241.88;5060732;28;20487;-63
2023/09/13 05:07:44;;;;;;;62.28;49.72;;;;;;;18.46;100.00;101239.47;5058825;28;20033;-63
2023/09/13 05:10:11;;;;;;;66.47;50.88;;;;;;;18.39;100.00;101244.56;5049656;28;20662;-64
2023/09/13 05:12:37;;;;;;;63.75;50.50;;;;;;;18.53;100.00;101255.94;5049982;28;20107;-63
2023/09/13 05:15:03;;;;;;;64.80;50.10;;;;;;;18.47;100.00;101251.09;5049094;28;20107;-63
2023/09/13 05:17:29;;;;;;;64.35;51.80;;;;;;;18.49;100.00;101243.72;5053641;28;20529;-64
2023/09/13 05:19:54;;;;;;;60.70;49.60;;;;;;;18.49;100.00;101241.03;5045866;28;20025;-64
2023/09/13 05:22:20;;;;;;;63.83;49.60;;;;;;;18.46;100.00;101246.72;5067341;28;20091;-64
2023/09/13 05:24:45;;;;;;;62.42;50.00;;;;;;;18.42;100.00;101243.44;5065075;28;20160;-63
2023/09/13 05:27:11;;;;;;;64.13;48.83;;;;;;;18.50;100.00;101243.63;5070454;28;20107;-62
2023/09/13 05:29:36;;;;;;;66.18;50.95;;;;;;;18.34;100.00;101245.97;5061039;28;20441;-64
2023/09/13 05:32:02;;;;;;;67.38;50.45;;;;;;;18.30;100.00;101239.16;5058466;28;20033;-64
2023/09/13 05:34:27;;;;;;;60.42;49.20;;;;;;;18.34;100.00;101241.44;5050930;28;20017;-63
2023/09/13 05:36:53;;;;;;;65.97;51.35;;;;;;;18.19;100.00;101236.56;5067221;28;20060;-63
2023/09/13 05:39:18;;;;;;;61.70;50.05;;;;;;;18.25;100.00;101253.03;5054739;28;20025;-64
2023/09/13 05:41:44;;;;;;;61.65;50.10;;;;;;;18.32;100.00;101261.41;5043967;28;20046;-64
2023/09/13 05:44:10;;;;;;;61.30;51.00;;;;;;;18.23;100.00;101249.59;5067129;28;20035;-64
2023/09/13 05:46:35;;;;;;;66.13;51.20;;;;;;;18.32;100.00;101272.16;5065432;28;20033;-64
2023/09/13 05:49:01;;;;;;;60.80;50.22;;;;;;;18.36;100.00;101271.78;5054504;28;20025;-63
2023/09/13 05:51:30;;;;;;;67.03;50.78;;;;;;;18.31;100.00;101257.88;5059920;28;20369;-64
2023/09/13 05:53:55;;;;;;;;;;;;;;;18.55;100.00;101280.91;5054302;28;20032;-64
2023/09/13 05:56:21;;;;;;;63.38;49.63;;;;;;;18.37;100.00;101276.16;5062137;28;19916;-64
2023/09/13 05:58:46;;;;;;;61.22;49.58;;;;;;;18.35;100.00;101283.56;5053360;28;20108;-63
2023/09/13 06:01:14;;;;;;;59.08;48.25;;;;;;;18.37;100.00;101286.94;5051489;28;20043;-63
2023/09/13 06:03:39;;;;;;;60.53;48.80;;;;;;;18.35;100.00;101282.66;5046985;28;20373;-64
2023/09/13 06:06:05;;;;;;;58.92;47.38;;;;;;;18.27;100.00;101286.06;5056798;28;20082;-64
2023/09/13 06:08:30;;;;;;;59.30;47.35;;;;;;;18.39;100.00;101290.34;5055112;28;20025;-63
2023/09/13 06:10:56;;;;;;;58.22;47.75;;;;;;;18.42;100.00;101280.31;5059240;28;20036;-63
2023/09/13 06:13:21;;;;;;;59.08;48.08;;;;;;;18.41;100.00;101295.59;5069126;28;20029;-64
2023/09/13 06:15:46;;;;;;;56.50;45.75;;;;;;;18.35;100.00;101288.06;5051963;28;20024;-63
2023/09/13 06:18:12;;;;;;;58.15;44.67;;;;;;;18.41;100.00;101297.44;5067611;28;20025;-62
2023/09/13 06:20:37;;;;;;;54.78;46.67;;;;;;;18.45;100.00;101299.72;5044963;28;20095;-63
2023/09/13 06:23:03;;;;;;;53.33;43.20;;;;;;;18.45;100.00;101309.66;5016961;28;20116;-63
2023/09/13 06:25:29;;;;;;;57.90;44.78;;;;;;;18.42;100.00;101313.47;5039231;28;20037;-62
2023/09/13 06:27:54;;;;;;;52.95;43.28;;;;;;;18.51;100.00;101312.66;5033561;28;20033;-64
2023/09/13 06:30:20;;;;;;;56.40;44.20;;;;;;;18.47;100.00;101322.00;5068958;28;20428;-62
2023/09/13 06:32:46;;;;;;;54.70;43.50;;;;;;;18.47;100.00;101318.44;5071151;28;20102;-62
2023/09/13 06:35:13;;;;;;;56.38;42.85;;;;;;;18.55;100.00;101321.31;5038816;28;20036;-63
2023/09/13 06:37:39;;;;;;;54.13;41.78;;;;;;;18.54;100.00;101327.69;5054768;28;20021;-63
2023/09/13 06:40:06;;;;;;;53.45;42.78;;;;;;;18.55;100.00;101334.78;5065657;28;20077;-62
2023/09/13 06:42:31;;;;;;;55.83;41.80;;;;;;;18.54;100.00;101327.69;5036834;28;20033;-63
2023/09/13 06:45:00;;;;;;;56.80;42.58;;;;;;;18.48;100.00;101323.69;5042926;28;20024;-62
2023/09/13 06:47:28;;;;;;;50.40;41.22;;;;;;;18.60;100.00;101338.75;5058828;28;20438;-62
2023/09/13 06:49:56;;;;;;;51.90;42.28;;;;;;;18.63;100.00;101336.81;5056482;28;20824;-63
2023/09/13 06:52:21;;;;;;;51.63;42.33;;;;;;;18.64;100.00;101335.78;5049986;28;20075;-63
2023/09/13 06:54:49;;;;;;;57.13;42.25;;;;;;;18.66;100.00;101340.06;5060428;28;20036;-64
2023/09/13 06:57:16;;;;;;;50.20;40.50;;;;;;;18.61;100.00;101336.91;5069368;28;20056;-63
2023/09/13 06:59:41;;;;;;;54.13;42.50;;;;;;;18.61;100.00;101337.75;5036417;28;20025;-62
2023/09/13 07:02:08;;;;;;;52.17;42.67;;;;;;;18.60;100.00;101346.84;5035661;28;20059;-62
2023/09/13 07:04:33;;;;;;;56.00;42.90;;;;;;;18.67;100.00;101346.31;5053090;28;20033;-63
2023/09/13 07:06:59;;;;;;;58.05;45.63;;;;;;;18.70;100.00;101359.50;5064199;28;20036;-62
2023/09/13 07:09:24;;;;;;;59.85;45.83;;;;;;;18.74;100.00;101360.97;5047758;28;20036;-63
2023/09/13 07:11:50;;;;;;;57.63;45.20;;;;;;;18.71;100.00;101350.44;5049651;28;20128;-63
2023/09/13 07:14:15;;;;;;;60.42;44.83;;;;;;;18.78;100.00;101367.78;5052819;28;20029;-63
2023/09/13 07:16:40;;;;;;;64.05;46.67;;;;;;;18.68;100.00;101338.09;5059352;28;20510;-63
2023/09/13 07:19:06;;;;;;;59.67;43.67;;;;;;;18.81;100.00;101352.19;5035676;28;20041;-63
2023/09/13 07:21:31;;;;;;;62.13;47.00;;;;;;;18.77;100.00;101361.56;5052359;28;20052;-63
2023/09/13 07:23:57;;;;;;;58.13;45.85;;;;;;;18.83;100.00;101357.47;5032859;28;20122;-63
2023/09/13 07:26:22;;;;;;;61.33;46.47;;;;;;;18.97;100.00;101364.28;5057311;28;20027;-63
2023/09/13 07:28:47;;;;;;;57.75;46.00;;;;;;;18.99;100.00;101365.00;5052067;28;20024;-64
2023/09/13 07:31:13;;;;;;;58.80;45.58;;;;;;;19.06;100.00;101369.72;5036774;28;20033;-63
2023/09/13 07:33:41;;;;;;;58.25;46.25;;;;;;;19.03;100.00;101378.06;5037363;28;20060;-63
2023/09/13 07:36:06;;;;;;;57.63;44.35;;;;;;;19.03;100.00;101377.19;5061184;28;20056;-63
2023/09/13 07:38:32;;;;;;;54.92;42.85;;;;;;;19.17;100.00;101376.81;5035224;28;20028;-63
2023/09/13 07:40:58;;;;;;;57.22;45.50;;;;;;;19.10;100.00;101374.81;5056645;28;20111;-64
2023/09/13 07:43:23;;;;;;;64.38;46.15;;;;;;;19.04;100.00;101378.94;5056510;28;20108;-64
2023/09/13 07:45:49;;;;;;;56.45;44.17;;;;;;;19.07;100.00;101378.66;5054114;28;20059;-64
2023/09/13 07:48:15;;;;;;;63.17;45.58;;;;;;;19.03;100.00;101386.16;5066662;28;20025;-66
2023/09/13 07:50:40;;;;;;;59.25;45.60;;;;;;;18.98;100.00;101379.47;5067049;28;20036;-66
2023/09/13 07:53:13;;;;;;;56.90;44.65;;;;;;;19.02;100.00;101383.59;5069908;28;20032;-66
2023/09/13 07:55:41;;;;;;;56.22;42.10;;;;;;;18.95;100.00;101396.78;5039333;28;20024;-67
2023/09/13 07:58:08;;;;;;;34.13;25.47;;;;;;;18.80;100.00;101401.69;5037816;28;20020;-66
2023/09/13 08:00:33;;;;;;;21.27;16.15;;;;;;;18.70;100.00;101418.78;5059843;28;20095;-66
2023/09/13 08:03:03;;;;;;;12.73;9.48;;;;;;;18.49;100.00;101413.44;5058641;28;20104;-67
2023/09/13 08:05:28;;;;;;;9.95;7.45;;;;;;;18.52;100.00;101421.25;5031070;28;20020;-66
2023/09/13 08:07:54;;;;;;;8.13;6.93;;;;;;;18.48;100.00;101431.44;5051416;28;20028;-66
2023/09/13 08:10:21;;;;;;;6.70;5.43;;;;;;;18.51;100.00;101436.56;5062288;28;20021;-66
2023/09/13 08:12:48;;;;;;;6.05;4.55;;;;;;;18.45;100.00;101441.66;5053695;28;20042;-66
2023/09/13 08:15:13;;;;;;;4.13;3.70;;;;;;;18.36;100.00;101443.31;5035340;28;20060;-66
2023/09/13 08:17:39;;;;;;;7.60;3.35;;;;;;;18.36;100.00;101449.53;5011572;28;20290;-66
2023/09/13 08:20:08;;;;;;;6.50;3.28;;;;;;;18.51;100.00;101458.13;5059277;28;20474;-66
2023/09/13 08:22:36;;;;;;;5.95;2.95;;;;;;;18.51;100.00;101454.59;5039121;28;20021;-66
2023/09/13 08:25:03;;;;;;;4.65;2.60;;;;;;;18.49;100.00;101470.88;5051030;28;20441;-66
2023/09/13 08:27:29;;;;;;;3.28;2.40;;;;;;;18.61;100.00;101474.34;5035489;28;20044;-67
2023/09/13 08:29:55;;;;;;;3.65;2.15;;;;;;;18.63;100.00;101474.22;5049091;28;20071;-66
2023/09/13 08:32:21;;;;;;;4.15;2.10;;;;;;;18.72;99.67;101484.19;5031113;28;20029;-67
2023/09/13 08:34:49;;;;;;;2.20;2.00;;;;;;;18.73;97.66;101491.28;5034539;28;20040;-66
2023/09/13 08:37:17;;;;;;;2.50;2.17;;;;;;;18.79;98.50;101494.31;5050200;28;20021;-67
2023/09/13 08:39:43;;;;;;;4.17;2.13;;;;;;;18.80;97.16;101490.66;5053400;28;20048;-66
2023/09/13 08:42:09;;;;;;;2.20;1.95;;;;;;;18.68;95.35;101512.38;5066425;28;20310;-67
2023/09/13 08:44:37;;;;;;;2.47;1.65;;;;;;;18.63;95.84;101509.25;5048402;28;20066;-66
2023/09/13 08:47:04;;;;;;;2.05;1.90;;;;;;;18.54;94.79;101510.88;5051377;28;20087;-67
2023/09/13 08:49:31;;;;;;;1.90;1.80;;;;;;;18.67;93.95;101529.53;5051554;28;20031;-66
2023/09/13 08:51:58;;;;;;;1.98;1.88;;;;;;;18.77;95.93;101531.34;5051155;28;20360;-66
2023/09/13 08:54:25;;;;;;;1.95;1.83;;;;;;;18.78;95.21;101537.59;5051414;28;20108;-66
2023/09/13 08:56:52;;;;;;;4.72;1.60;;;;;;;18.76;95.45;101543.09;5033377;28;20021;-66
2023/09/13 08:59:17;;;;;;;3.95;2.30;;;;;;;18.75;93.13;101549.47;5051463;28;20025;-66
2023/09/13 09:01:50;;;;;;;2.67;1.80;;;;;;;18.78;93.46;101569.94;5033617;28;20044;-66
2023/09/13 09:04:16;;;;;;;3.95;1.92;;;;;;;18.75;91.62;101562.94;5051544;28;20049;-66
2023/09/13 09:06:42;;;;;;;2.20;1.98;;;;;;;18.80;91.27;101573.34;5033201;28;20036;-66
2023/09/13 09:09:08;;;;;;;3.17;2.03;;;;;;;18.83;90.13;101568.53;5051509;28;20468;-66
2023/09/13 09:11:36;;;;;;;2.13;1.85;;;;;;;18.80;90.04;101587.69;5051314;28;20032;-66
2023/09/13 09:14:04;;;;;;;2.00;1.83;;;;;;;18.83;89.85;101584.72;5050850;28;20389;-66
2023/09/13 09:16:35;;;;;;;4.10;1.95;;;;;;;18.82;89.34;101585.72;5051099;28;20021;-66
2023/09/13 09:19:04;;;;;;;3.55;2.20;;;;;;;18.89;89.02;101587.88;5051107;28;20025;-66
2023/09/13 09:21:31;;;;;;;4.72;1.90;;;;;;;18.76;88.94;101601.53;5050496;28;20103;-66
2023/09/13 09:23:57;;;;;;;2.35;1.90;;;;;;;18.77;88.98;101596.03;5049802;28;20032;-66
2023/09/13 09:26:25;;;;;;;4.63;2.10;;;;;;;18.67;90.58;101594.22;5051016;28;20494;-66
2023/09/13 09:28:51;;;;;;;4.47;1.98;;;;;;;18.72;91.15;101610.84;5050996;28;20369;-66
2023/09/13 09:31:17;;;;;;;5.22;1.92;;;;;;;18.61;88.66;101607.22;5051126;28;20033;-66
2023/09/13 09:33:43;;;;;;;3.88;2.13;;;;;;;18.71;87.66;101614.53;5066654;28;20108;-66
2023/09/13 09:36:10;;;;;;;4.68;2.05;;;;;;;18.69;87.38;101621.88;5050280;28;20114;-66
2023/09/13 09:38:35;;;;;;;2.67;2.17;;;;;;;18.79;87.32;101612.06;5051293;28;20035;-66
2023/09/13 09:41:02;;;;;;;2.15;1.90;;;;;;;18.76;86.32;101623.09;5033093;28;20029;-66
2023/09/13 09:43:29;;;;;;;3.40;2.20;;;;;;;18.74;85.75;101625.94;5050955;28;20066;-66
2023/09/13 09:45:55;;;;;;;1.85;1.70;;;;;;;18.74;85.25;101625.09;5051004;28;20108;-66
2023/09/13 09:48:21;;;;;;;3.75;1.88;;;;;;;18.80;84.35;101636.19;5051124;28;20115;-67
2023/09/13 09:50:49;;;;;;;1.95;1.85;;;;;;;18.76;83.38;101636.56;5050424;28;20410;-66
2023/09/13 09:53:14;;;;;;;3.00;2.20;;;;;;;18.66;83.22;101632.94;5066462;28;20103;-66
2023/09/13 09:55:45;;;;;;;2.28;2.05;;;;;;;18.75;83.92;101638.41;5050876;28;20104;-66
2023/09/13 09:58:11;;;;;;;4.00;2.03;;;;;;;18.79;83.08;101631.75;5049387;28;20503;-66
2023/09/13 10:00:47;;;;;;;1.85;1.75;;;;;;;18.90;82.58;101630.00;5031046;28;20033;-66
2023/09/13 10:03:17;;;;;;;3.97;2.10;;;;;;;18.97;81.57;101642.84;5030501;28;20078;-67
2023/09/13 10:06:10;;;;;;;2.80;2.20;;;;;;;19.31;82.62;101639.91;5049676;28;20028;-66
2023/09/13 10:08:43;;;;;;;2.72;1.98;;;;;;;19.50;80.80;101636.44;5035886;28;20171;-66
2023/09/13 10:11:13;;;;;;;2.40;2.20;;;;;;;19.85;79.04;101637.88;5055170;28;20028;-67
2023/09/13 10:13:40;;;;;;;3.45;2.80;;;;;;;20.08;77.20;101647.44;5054514;28;20032;-66
2023/09/13 10:16:08;;;;;;;2.50;2.30;;;;;;;20.13;77.97;101657.84;5034010;28;20026;-67
2023/09/13 10:18:42;;;;;;;2.30;2.00;;;;;;;20.32;77.65;101657.00;5049317;28;20021;-66
2023/09/13 10:21:09;;;;;;;2.20;2.00;;;;;;;20.53;77.31;101663.19;5033612;28;20024;-66
2023/09/13 10:23:43;;;;;;;5.32;2.08;;;;;;;20.64;75.73;101668.44;5034080;28;20033;-66
2023/09/13 10:26:11;;;;;;;2.40;2.20;;;;;;;20.55;74.39;101668.44;5041922;28;20159;-66
2023/09/13 10:28:44;;;;;;;4.05;2.45;;;;;;;20.54;74.71;101664.88;5036155;28;20033;-66
2023/09/13 10:31:19;;;;;;;2.47;2.28;;;;;;;20.50;74.15;101676.97;5048643;28;20133;-67
2023/09/13 10:33:51;;;;;;;2.75;2.40;;;;;;;20.76;73.10;101677.25;5050874;28;20037;-67
2023/09/13 10:36:22;;;;;;;4.13;2.33;;;;;;;20.95;73.05;101660.19;5051536;28;20060;-66
2023/09/13 10:39:07;;;;;;;3.55;2.08;;;;;;;21.33;71.49;101669.22;5052949;28;20025;-67
2023/09/13 10:41:42;;;;;;;2.83;2.20;;;;;;;21.52;70.32;101692.69;5053421;28;20029;-66
2023/09/13 10:44:09;;;;;;;4.43;1.80;;;;;;;21.47;69.04;101693.13;5053650;28;20040;-67
2023/09/13 10:46:37;;;;;;;3.35;1.70;;;;;;;21.42;70.87;101694.56;5054709;28;20222;-66
2023/09/13 10:49:05;;;;;;;2.42;1.63;;;;;;;21.60;69.59;101700.06;5068901;28;20036;-67
2023/09/13 10:51:32;;;;;;;1.55;1.45;;;;;;;21.48;69.18;101711.06;5058420;28;20103;-67
2023/09/13 10:54:00;;;;;;;2.85;1.55;;;;;;;21.27;68.48;101711.25;5062754;28;20503;-66
2023/09/13 10:56:27;;;;;;;1.20;1.10;;;;;;;21.28;70.84;101707.53;5062684;28;20048;-67
2023/09/13 10:58:56;;;;;;;3.00;1.60;;;;;;;21.30;68.76;101699.28;5062073;28;20047;-66
2023/09/13 11:01:23;;;;;;;1.83;1.45;;;;;;;21.25;71.02;101709.66;5053330;28;20099;-67
2023/09/13 11:03:51;;;;;;;3.67;1.90;;;;;;;21.03;69.61;101719.81;5051436;28;20026;-66
2023/09/13 11:06:18;;;;;;;2.33;1.60;;;;;;;20.98;69.01;101723.94;5052664;28;20032;-67
2023/09/13 11:08:44;;;;;;;2.53;1.73;;;;;;;20.81;70.00;101717.41;5053188;28;20279;-67